createdAt,value
2023-03-31T00:00:45.736Z,3.60
2023-03-31T00:01:40.872Z,3.60
2023-03-31T00:02:36.186Z,4.90
2023-03-31T00:03:31.810Z,3.80
2023-03-31T00:04:27.107Z,5.40
2023-03-31T00:05:22.028Z,2.80
2023-03-31T00:06:18.234Z,3.70
2023-03-31T00:07:13.069Z,6.90
2023-03-31T00:08:08.475Z,6.10
2023-03-31T00:09:03.457Z,4.50
2023-03-31T00:10:07.088Z,4.00
2023-03-31T00:10:54.594Z,4.70
2023-03-31T00:11:48.607Z,4.50
2023-03-31T00:12:43.603Z,2.90
2023-03-31T00:13:38.860Z,4.50
2023-03-31T00:14:34.008Z,6.80
2023-03-31T00:15:29.044Z,6.20
2023-03-31T00:16:24.325Z,6.30
2023-03-31T00:17:19.363Z,3.30
2023-03-31T00:18:14.345Z,4.20
2023-03-31T00:19:09.494Z,3.90
2023-03-31T00:20:04.499Z,6.00
2023-03-31T00:21:01.892Z,3.80
2023-03-31T00:21:54.611Z,5.30
2023-03-31T00:22:49.632Z,6.40
2023-03-31T00:23:44.807Z,7.30
2023-03-31T00:24:39.772Z,4.60
2023-03-31T00:25:34.766Z,4.80
2023-03-31T00:26:29.822Z,3.10
2023-03-31T00:27:24.812Z,2.40
2023-03-31T00:28:19.888Z,5.70
2023-03-31T00:29:14.924Z,4.00
2023-03-31T00:30:10.287Z,4.50
2023-03-31T00:31:05.005Z,5.10
2023-03-31T00:32:00.183Z,5.40
2023-03-31T00:32:55.847Z,3.90
2023-03-31T00:33:51.085Z,3.30
2023-03-31T00:34:46.843Z,4.20
2023-03-31T00:35:41.859Z,7.00
2023-03-31T00:36:37.236Z,2.30
2023-03-31T00:37:32.989Z,4.30
2023-03-31T00:38:28.062Z,4.40
2023-03-31T00:39:23.401Z,2.90
2023-03-31T00:40:19.525Z,4.10
2023-03-31T00:41:14.734Z,4.10
2023-03-31T00:42:10.505Z,3.50
2023-03-31T00:43:05.675Z,3.50
2023-03-31T00:44:00.905Z,6.00
2023-03-31T00:44:56.535Z,3.90
2023-03-31T00:45:51.743Z,5.30
2023-03-31T00:46:47.614Z,6.70
2023-03-31T00:47:42.830Z,4.30
2023-03-31T00:48:38.177Z,4.60
2023-03-31T00:49:33.790Z,4.80
2023-03-31T00:50:29.002Z,4.20
2023-03-31T00:51:24.250Z,2.30
2023-03-31T00:52:20.555Z,4.70
2023-03-31T00:53:15.754Z,3.00
2023-03-31T00:54:11.553Z,5.40
2023-03-31T00:55:06.695Z,4.80
2023-03-31T00:56:02.033Z,6.90
2023-03-31T00:56:57.743Z,4.80
2023-03-31T00:57:52.906Z,5.40
2023-03-31T00:58:48.844Z,2.70
2023-03-31T00:59:43.886Z,4.80
2023-03-31T01:00:39.197Z,5.00
2023-03-31T01:01:34.999Z,3.50
2023-03-31T01:02:30.182Z,4.10
2023-03-31T01:03:25.501Z,3.10
2023-03-31T01:04:21.481Z,8.60
2023-03-31T01:05:16.709Z,4.10
2023-03-31T01:06:12.448Z,4.40
2023-03-31T01:07:07.620Z,3.10
2023-03-31T01:08:02.694Z,4.60
2023-03-31T01:08:58.497Z,7.70
2023-03-31T01:09:53.693Z,6.20
2023-03-31T01:10:49.574Z,4.90
2023-03-31T01:11:44.716Z,5.50
2023-03-31T01:12:39.956Z,5.20
2023-03-31T01:13:35.848Z,5.70
2023-03-31T01:14:30.932Z,6.00
2023-03-31T01:15:26.084Z,3.10
2023-03-31T01:16:22.402Z,4.90
2023-03-31T01:17:17.610Z,6.60
2023-03-31T01:18:13.726Z,5.60
2023-03-31T01:19:08.532Z,7.50
2023-03-31T01:20:03.734Z,2.90
2023-03-31T01:20:59.515Z,3.70
2023-03-31T01:21:54.726Z,2.80
2023-03-31T01:22:50.575Z,3.70
2023-03-31T01:23:45.825Z,3.10
2023-03-31T01:24:40.993Z,3.70
2023-03-31T01:25:36.874Z,3.70
2023-03-31T01:26:32.065Z,6.30
2023-03-31T01:27:27.401Z,4.50
2023-03-31T01:28:23.576Z,4.00
2023-03-31T01:29:18.784Z,6.00
2023-03-31T01:30:14.389Z,6.70
2023-03-31T01:31:09.688Z,3.20
2023-03-31T01:32:04.812Z,6.60
2023-03-31T01:33:00.110Z,1.80
2023-03-31T01:33:56.568Z,4.40
2023-03-31T01:34:51.857Z,3.30
2023-03-31T01:35:46.969Z,5.20
2023-03-31T01:36:42.707Z,3.70
2023-03-31T01:37:37.871Z,3.80
2023-03-31T01:38:33.155Z,6.30
2023-03-31T01:39:29.300Z,8.00
2023-03-31T01:40:24.501Z,2.70
2023-03-31T01:41:20.235Z,4.40
2023-03-31T01:42:15.423Z,3.60
2023-03-31T01:43:10.752Z,7.40
2023-03-31T01:44:06.401Z,5.60
2023-03-31T01:45:01.585Z,4.20
2023-03-31T01:45:57.748Z,3.40
2023-03-31T01:46:52.793Z,5.50
2023-03-31T01:47:48.168Z,4.60
2023-03-31T01:48:44.082Z,6.10
2023-03-31T01:49:39.111Z,6.80
2023-03-31T01:50:34.253Z,5.70
2023-03-31T01:51:29.441Z,5.20
2023-03-31T01:52:24.736Z,3.60
2023-03-31T01:53:19.803Z,3.20
2023-03-31T01:54:15.035Z,2.60
2023-03-31T01:55:10.734Z,4.10
2023-03-31T01:56:06.142Z,4.10
2023-03-31T01:57:01.145Z,5.00
2023-03-31T01:59:26.804Z,6.40
2023-03-31T02:00:21.847Z,4.30
2023-03-31T02:01:18.769Z,4.50
2023-03-31T02:02:12.258Z,4.50
2023-03-31T02:03:07.485Z,4.00
2023-03-31T02:04:02.643Z,4.30
2023-03-31T02:04:57.594Z,2.50
2023-03-31T02:05:52.724Z,4.80
2023-03-31T02:06:48.032Z,5.00
2023-03-31T02:07:43.068Z,3.30
2023-03-31T02:08:38.355Z,9.60
2023-03-31T02:09:33.511Z,5.00
2023-03-31T02:10:28.555Z,6.50
2023-03-31T02:11:23.704Z,4.20
2023-03-31T02:12:18.848Z,2.90
2023-03-31T02:13:14.053Z,4.60
2023-03-31T02:14:09.359Z,4.10
2023-03-31T02:15:04.397Z,3.80
2023-03-31T02:15:59.554Z,6.00
2023-03-31T02:16:54.737Z,6.20
2023-03-31T02:17:49.750Z,4.40
2023-03-31T02:18:45.103Z,3.30
2023-03-31T02:19:40.244Z,10.10
2023-03-31T02:20:35.310Z,5.90
2023-03-31T02:21:30.556Z,3.30
2023-03-31T02:22:25.641Z,4.20
2023-03-31T02:23:20.749Z,5.50
2023-03-31T02:24:16.050Z,5.70
2023-03-31T02:25:11.078Z,5.10
2023-03-31T02:26:06.559Z,6.40
2023-03-31T02:27:01.352Z,7.90
2023-03-31T02:27:56.527Z,5.00
2023-03-31T02:28:51.853Z,6.40
2023-03-31T02:29:46.992Z,8.00
2023-03-31T02:30:42.024Z,6.90
2023-03-31T02:31:37.344Z,5.50
2023-03-31T02:32:32.453Z,3.00
2023-03-31T02:33:27.449Z,5.50
2023-03-31T02:34:22.750Z,6.70
2023-03-31T02:35:17.842Z,4.50
2023-03-31T02:36:13.006Z,5.40
2023-03-31T02:37:08.124Z,8.70
2023-03-31T02:38:03.412Z,9.90
2023-03-31T02:38:58.604Z,4.90
2023-03-31T02:39:53.719Z,3.60
2023-03-31T02:40:48.780Z,4.80
2023-03-31T02:41:44.048Z,7.00
2023-03-31T02:42:39.071Z,5.50
2023-03-31T02:43:34.220Z,4.00
2023-03-31T02:44:29.529Z,4.60
2023-03-31T02:45:24.451Z,5.20
2023-03-31T02:46:19.645Z,7.40
2023-03-31T02:47:14.625Z,5.60
2023-03-31T02:48:09.806Z,6.20
2023-03-31T02:49:04.962Z,4.80
2023-03-31T02:50:00.385Z,5.00
2023-03-31T02:50:55.252Z,7.00
2023-03-31T02:51:50.414Z,8.00
2023-03-31T02:52:45.561Z,7.40
2023-03-31T02:53:40.824Z,5.10
2023-03-31T02:54:35.924Z,3.90
2023-03-31T02:55:31.096Z,6.50
2023-03-31T02:56:26.215Z,9.10
2023-03-31T02:57:21.413Z,8.10
2023-03-31T02:58:16.442Z,7.50
2023-03-31T02:59:11.787Z,5.00
2023-03-31T03:00:06.926Z,3.20
2023-03-31T03:01:01.964Z,5.80
2023-03-31T03:01:57.123Z,4.50
2023-03-31T03:02:52.361Z,4.10
2023-03-31T03:03:47.553Z,3.80
2023-03-31T03:04:42.562Z,6.30
2023-03-31T03:05:37.737Z,5.50
2023-03-31T03:06:32.852Z,7.30
2023-03-31T03:07:28.008Z,8.00
2023-03-31T03:08:23.205Z,6.30
2023-03-31T03:09:18.516Z,5.90
2023-03-31T03:10:13.670Z,4.90
2023-03-31T03:11:08.704Z,6.80
2023-03-31T03:12:03.885Z,7.30
2023-03-31T03:12:59.064Z,4.20
2023-03-31T03:13:54.245Z,9.00
2023-03-31T03:14:49.481Z,8.60
2023-03-31T03:15:44.573Z,7.30
2023-03-31T03:16:39.738Z,4.00
2023-03-31T03:17:34.935Z,6.00
2023-03-31T03:18:29.940Z,6.10
2023-03-31T03:19:25.245Z,4.80
2023-03-31T03:20:20.435Z,7.80
2023-03-31T03:21:15.461Z,8.20
2023-03-31T03:22:10.624Z,3.80
2023-03-31T03:23:05.776Z,6.50
2023-03-31T03:24:00.941Z,8.50
2023-03-31T03:24:56.277Z,7.70
2023-03-31T03:25:51.183Z,6.00
2023-03-31T03:26:46.321Z,8.40
2023-03-31T03:27:41.481Z,6.40
2023-03-31T03:28:36.624Z,5.10
2023-03-31T03:29:31.961Z,7.00
2023-03-31T03:30:27.070Z,6.70
2023-03-31T03:31:22.158Z,10.80
2023-03-31T03:32:17.234Z,3.40
2023-03-31T03:33:13.907Z,6.50
2023-03-31T03:34:07.891Z,6.40
2023-03-31T03:35:02.909Z,4.50
2023-03-31T03:35:58.115Z,7.30
2023-03-31T03:36:53.252Z,6.90
2023-03-31T03:37:48.544Z,9.90
2023-03-31T03:38:43.600Z,4.60
2023-03-31T03:39:38.919Z,7.90
2023-03-31T03:40:33.983Z,6.40
2023-03-31T03:41:29.169Z,8.60
2023-03-31T03:42:24.310Z,5.20
2023-03-31T03:43:19.466Z,8.50
2023-03-31T03:44:14.796Z,6.20
2023-03-31T03:45:09.781Z,8.60
2023-03-31T03:46:05.450Z,7.80
2023-03-31T03:47:00.156Z,5.80
2023-03-31T03:47:55.510Z,10.40
2023-03-31T03:48:50.577Z,10.10
2023-03-31T03:49:45.835Z,8.60
2023-03-31T03:50:40.888Z,11.30
2023-03-31T03:51:36.119Z,6.70
2023-03-31T03:52:31.260Z,7.50
2023-03-31T03:53:26.582Z,6.30
2023-03-31T03:54:21.816Z,8.00
2023-03-31T03:55:16.815Z,8.50
2023-03-31T03:56:11.888Z,8.40
2023-03-31T03:57:07.988Z,4.90
2023-03-31T03:58:03.177Z,11.10
2023-03-31T03:58:58.389Z,9.10
2023-03-31T03:59:53.500Z,10.60
2023-03-31T04:00:48.699Z,7.10
2023-03-31T04:01:43.851Z,9.70
2023-03-31T04:02:39.264Z,7.30
2023-03-31T04:03:34.171Z,10.30
2023-03-31T04:04:29.574Z,5.90
2023-03-31T04:05:24.536Z,9.00
2023-03-31T04:06:19.778Z,7.50
2023-03-31T04:07:14.806Z,6.10
2023-03-31T04:08:09.979Z,7.30
2023-03-31T04:09:05.137Z,5.70
2023-03-31T04:10:00.624Z,6.90
2023-03-31T04:10:55.578Z,7.80
2023-03-31T04:11:50.582Z,8.70
2023-03-31T04:12:45.803Z,10.20
2023-03-31T04:13:41.040Z,8.50
2023-03-31T04:14:36.364Z,6.40
2023-03-31T04:15:31.440Z,7.80
2023-03-31T04:16:26.629Z,8.60
2023-03-31T04:17:21.849Z,11.30
2023-03-31T04:18:17.004Z,6.90
2023-03-31T04:19:12.339Z,5.90
2023-03-31T04:20:07.561Z,11.00
2023-03-31T04:21:02.659Z,9.20
2023-03-31T04:21:57.953Z,8.30
2023-03-31T04:22:53.019Z,11.90
2023-03-31T04:23:48.224Z,5.30
2023-03-31T04:24:43.439Z,13.60
2023-03-31T04:25:38.786Z,5.60
2023-03-31T04:26:33.990Z,7.80
2023-03-31T04:27:29.010Z,7.60
2023-03-31T04:28:24.116Z,10.90
2023-03-31T04:29:19.170Z,6.50
2023-03-31T04:30:14.254Z,7.20
2023-03-31T04:31:09.476Z,11.50
2023-03-31T04:32:04.461Z,7.30
2023-03-31T04:32:59.436Z,7.50
2023-03-31T04:33:54.477Z,4.20
2023-03-31T04:34:49.474Z,6.90
2023-03-31T04:35:44.754Z,7.50
2023-03-31T04:36:39.519Z,8.60
2023-03-31T04:37:34.582Z,7.20
2023-03-31T04:38:29.718Z,7.70
2023-03-31T04:39:24.790Z,9.30
2023-03-31T04:40:19.988Z,6.20
2023-03-31T04:41:15.196Z,5.40
2023-03-31T04:42:10.150Z,11.20
2023-03-31T04:43:05.160Z,11.50
2023-03-31T04:44:00.156Z,8.20
2023-03-31T04:44:55.283Z,10.60
2023-03-31T04:45:50.499Z,7.90
2023-03-31T04:46:45.318Z,8.50
2023-03-31T04:47:40.365Z,13.10
2023-03-31T04:48:35.403Z,10.40
2023-03-31T04:49:30.466Z,11.00
2023-03-31T04:50:25.671Z,12.30
2023-03-31T04:51:20.786Z,10.00
2023-03-31T04:52:16.054Z,9.20
2023-03-31T04:53:11.356Z,8.40
2023-03-31T04:54:06.593Z,10.00
2023-03-31T04:55:02.025Z,14.40
2023-03-31T04:55:57.226Z,10.60
2023-03-31T04:56:52.392Z,10.10
2023-03-31T04:57:47.711Z,12.90
2023-03-31T04:58:43.015Z,12.90
2023-03-31T04:59:38.467Z,13.80
2023-03-31T05:00:33.764Z,15.80
2023-03-31T05:01:28.706Z,18.20
2023-03-31T05:02:25.407Z,13.50
2023-03-31T05:03:18.793Z,11.40
2023-03-31T05:04:13.775Z,13.00
2023-03-31T05:05:08.852Z,8.50
2023-03-31T05:06:04.366Z,10.50
2023-03-31T05:06:58.974Z,10.50
2023-03-31T05:07:53.972Z,11.20
2023-03-31T05:08:49.006Z,10.80
2023-03-31T05:09:44.009Z,13.00
2023-03-31T05:10:39.314Z,9.70
2023-03-31T05:11:34.134Z,14.70
2023-03-31T05:12:29.272Z,10.00
2023-03-31T05:13:24.243Z,10.10
2023-03-31T05:14:19.377Z,9.20
2023-03-31T05:15:14.929Z,12.90
2023-03-31T05:16:10.355Z,14.50
2023-03-31T05:17:05.423Z,12.50
2023-03-31T05:18:00.922Z,12.30
2023-03-31T05:18:56.161Z,11.00
2023-03-31T05:19:51.552Z,8.90
2023-03-31T05:20:47.055Z,9.60
2023-03-31T05:21:42.176Z,9.40
2023-03-31T05:22:37.494Z,7.30
2023-03-31T05:23:33.036Z,10.20
2023-03-31T05:24:28.399Z,9.00
2023-03-31T05:25:23.889Z,12.00
2023-03-31T05:26:18.737Z,7.90
2023-03-31T05:27:13.963Z,8.50
2023-03-31T05:28:09.047Z,9.50
2023-03-31T05:29:07.613Z,10.80
2023-03-31T05:30:02.881Z,8.70
2023-03-31T05:30:58.262Z,13.20
2023-03-31T05:31:53.673Z,12.50
2023-03-31T05:32:49.113Z,13.30
2023-03-31T05:33:44.412Z,12.30
2023-03-31T05:34:40.215Z,12.70
2023-03-31T05:35:35.709Z,15.10
2023-03-31T05:36:30.897Z,10.30
2023-03-31T05:37:26.132Z,8.70
2023-03-31T05:38:21.571Z,10.60
2023-03-31T05:39:16.580Z,10.00
2023-03-31T05:40:11.811Z,13.00
2023-03-31T05:41:06.841Z,16.50
2023-03-31T05:42:02.025Z,8.00
2023-03-31T05:42:57.115Z,13.80
2023-03-31T05:43:52.155Z,10.40
2023-03-31T05:44:47.387Z,11.50
2023-03-31T05:45:42.280Z,12.90
2023-03-31T05:46:37.310Z,13.40
2023-03-31T05:47:32.365Z,9.10
2023-03-31T05:48:27.329Z,8.80
2023-03-31T05:49:22.438Z,11.40
2023-03-31T05:50:17.690Z,10.50
2023-03-31T05:51:12.571Z,12.80
2023-03-31T05:52:09.281Z,13.70
2023-03-31T05:53:04.401Z,10.00
2023-03-31T05:53:59.638Z,9.70
2023-03-31T05:54:55.073Z,9.80
2023-03-31T05:55:49.940Z,12.20
2023-03-31T05:56:45.034Z,11.10
2023-03-31T05:57:40.058Z,8.90
2023-03-31T05:58:35.442Z,10.00
2023-03-31T05:59:30.875Z,9.70
2023-03-31T06:00:26.332Z,8.20
2023-03-31T06:01:21.558Z,9.00
2023-03-31T06:02:16.982Z,15.10
2023-03-31T06:03:12.578Z,11.00
2023-03-31T06:04:07.970Z,13.90
2023-03-31T06:05:03.255Z,15.90
2023-03-31T06:05:58.519Z,12.00
2023-03-31T06:06:53.798Z,12.40
2023-03-31T06:07:49.237Z,14.20
2023-03-31T06:08:44.500Z,13.80
2023-03-31T06:09:40.024Z,13.00
2023-03-31T06:10:35.097Z,23.50
2023-03-31T06:11:30.515Z,21.90
2023-03-31T06:12:25.596Z,19.60
2023-03-31T06:13:20.727Z,21.70
2023-03-31T06:14:15.702Z,13.70
2023-03-31T06:15:14.666Z,15.40
2023-03-31T06:16:09.761Z,17.80
2023-03-31T06:17:05.048Z,15.40
2023-03-31T06:18:00.483Z,16.00
2023-03-31T06:18:55.724Z,23.70
2023-03-31T06:19:51.215Z,18.00
2023-03-31T06:20:46.409Z,14.40
2023-03-31T06:21:41.704Z,18.40
2023-03-31T06:22:37.163Z,15.80
2023-03-31T06:23:32.458Z,15.90
2023-03-31T06:24:28.198Z,17.80
2023-03-31T06:25:23.246Z,12.20
2023-03-31T06:26:18.639Z,9.60
2023-03-31T06:27:13.923Z,12.50
2023-03-31T06:28:09.402Z,13.60
2023-03-31T06:29:04.881Z,13.20
2023-03-31T06:30:00.153Z,14.40
2023-03-31T06:30:55.592Z,13.00
2023-03-31T06:31:50.701Z,14.30
2023-03-31T06:32:45.718Z,15.10
2023-03-31T06:33:40.975Z,16.00
2023-03-31T06:34:36.188Z,14.30
2023-03-31T06:35:31.209Z,9.90
2023-03-31T06:36:26.195Z,13.70
2023-03-31T06:37:21.255Z,12.50
2023-03-31T06:38:16.420Z,11.40
2023-03-31T06:39:11.660Z,7.70
2023-03-31T06:40:06.551Z,10.10
2023-03-31T06:41:01.568Z,11.10
2023-03-31T06:41:57.514Z,6.50
2023-03-31T06:42:52.961Z,6.70
2023-03-31T06:43:48.301Z,10.40
2023-03-31T06:44:43.945Z,12.90
2023-03-31T06:45:39.398Z,13.40
2023-03-31T06:46:34.874Z,11.30
2023-03-31T06:47:30.217Z,12.10
2023-03-31T06:48:25.633Z,14.20
2023-03-31T06:49:21.172Z,12.40
2023-03-31T06:50:16.413Z,12.40
2023-03-31T06:51:11.735Z,13.50
2023-03-31T06:52:07.262Z,10.60
2023-03-31T06:53:02.781Z,10.60
2023-03-31T06:53:58.245Z,10.50
2023-03-31T06:54:53.202Z,16.10
2023-03-31T06:55:48.336Z,14.20
2023-03-31T06:56:43.387Z,12.80
2023-03-31T06:57:38.506Z,10.50
2023-03-31T06:58:33.524Z,12.00
2023-03-31T06:59:28.658Z,13.10
2023-03-31T07:00:23.626Z,11.50
2023-03-31T07:01:20.981Z,14.10
2023-03-31T07:02:15.962Z,14.10
2023-03-31T07:03:11.197Z,15.20
2023-03-31T07:04:06.124Z,11.60
2023-03-31T07:05:01.146Z,13.80
2023-03-31T07:05:56.136Z,13.80
2023-03-31T07:06:51.641Z,13.80
2023-03-31T07:07:46.579Z,10.60
2023-03-31T07:08:41.566Z,13.50
2023-03-31T07:09:36.789Z,16.50
2023-03-31T07:10:31.705Z,12.30
2023-03-31T07:11:26.776Z,12.20
2023-03-31T07:12:21.827Z,15.30
2023-03-31T07:13:16.834Z,9.80
2023-03-31T07:14:12.060Z,11.50
2023-03-31T07:15:06.992Z,10.90
2023-03-31T07:16:02.094Z,10.30
2023-03-31T07:16:57.150Z,14.10
2023-03-31T07:17:52.237Z,12.40
2023-03-31T07:18:47.381Z,21.00
2023-03-31T07:19:42.520Z,17.30
2023-03-31T07:20:37.397Z,10.80
2023-03-31T07:21:32.395Z,12.00
2023-03-31T07:22:27.662Z,11.60
2023-03-31T07:23:23.085Z,11.50
2023-03-31T07:24:18.635Z,14.30
2023-03-31T07:25:14.325Z,12.10
2023-03-31T07:26:09.657Z,11.30
2023-03-31T07:27:05.094Z,10.50
2023-03-31T07:28:00.662Z,13.60
2023-03-31T07:28:55.992Z,10.90
2023-03-31T07:29:51.552Z,12.10
2023-03-31T07:30:46.852Z,8.70
2023-03-31T07:31:42.028Z,12.40
2023-03-31T07:32:37.072Z,7.20
2023-03-31T07:33:32.158Z,9.60
2023-03-31T07:34:27.184Z,8.60
2023-03-31T07:35:22.369Z,10.90
2023-03-31T07:36:17.686Z,10.40
2023-03-31T07:37:12.435Z,10.80
2023-03-31T07:38:07.414Z,13.30
2023-03-31T07:39:02.550Z,11.50
2023-03-31T07:39:57.775Z,12.50
2023-03-31T07:41:02.121Z,8.40
2023-03-31T07:41:49.681Z,9.20
2023-03-31T07:42:43.746Z,10.40
2023-03-31T07:43:38.724Z,9.80
2023-03-31T07:44:34.946Z,12.60
2023-03-31T07:45:30.186Z,13.30
2023-03-31T07:46:26.835Z,12.00
2023-03-31T07:47:22.327Z,10.20
2023-03-31T07:48:17.617Z,10.10
2023-03-31T07:49:12.808Z,8.40
2023-03-31T07:50:08.511Z,10.10
2023-03-31T07:51:03.934Z,10.00
2023-03-31T07:51:59.332Z,8.70
2023-03-31T07:52:54.536Z,6.70
2023-03-31T07:53:50.089Z,7.10
2023-03-31T07:54:45.294Z,6.00
2023-03-31T07:55:40.230Z,3.90
2023-03-31T07:56:35.366Z,4.90
2023-03-31T07:57:30.488Z,3.00
2023-03-31T07:58:25.496Z,3.20
2023-03-31T07:59:20.584Z,1.70
2023-03-31T08:00:15.805Z,3.20
2023-03-31T08:01:10.669Z,2.60
2023-03-31T08:02:05.753Z,1.80
2023-03-31T08:03:01.037Z,2.60
2023-03-31T08:03:56.867Z,3.30
2023-03-31T08:04:52.072Z,2.20
2023-03-31T08:05:47.130Z,2.50
2023-03-31T08:06:42.223Z,2.40
2023-03-31T08:07:37.225Z,2.00
2023-03-31T08:08:32.271Z,1.60
2023-03-31T08:09:27.293Z,0.90
2023-03-31T08:10:22.401Z,1.30
2023-03-31T08:11:17.883Z,1.20
2023-03-31T08:12:13.262Z,1.90
2023-03-31T08:13:08.763Z,2.80
2023-03-31T08:14:04.306Z,3.20
2023-03-31T08:14:59.671Z,1.40
2023-03-31T08:15:55.169Z,2.50
2023-03-31T08:16:50.617Z,6.80
2023-03-31T08:17:46.204Z,1.80
2023-03-31T08:18:41.517Z,0.80
2023-03-31T08:19:37.402Z,0.50
2023-03-31T08:20:32.559Z,0.90
2023-03-31T08:21:28.024Z,1.30
2023-03-31T08:22:23.542Z,2.50
2023-03-31T08:23:18.801Z,2.50
2023-03-31T08:24:14.250Z,0.70
2023-03-31T08:25:09.908Z,0.70
2023-03-31T08:26:05.380Z,0.90
2023-03-31T08:27:04.695Z,2.10
2023-03-31T08:28:00.238Z,4.00
2023-03-31T08:28:55.498Z,1.70
2023-03-31T08:29:51.139Z,1.10
2023-03-31T08:30:46.496Z,1.90
2023-03-31T08:31:41.778Z,2.80
2023-03-31T08:32:37.240Z,0.90
2023-03-31T08:33:32.690Z,0.90
2023-03-31T08:34:28.438Z,1.80
2023-03-31T08:35:23.997Z,1.60
2023-03-31T08:36:19.261Z,2.50
2023-03-31T08:37:14.774Z,2.00
2023-03-31T08:38:10.345Z,0.90
2023-03-31T08:39:05.540Z,1.90
2023-03-31T08:40:01.203Z,1.70
2023-03-31T08:40:56.105Z,1.00
2023-03-31T08:41:51.231Z,0.70
2023-03-31T08:42:46.275Z,1.00
2023-03-31T08:43:41.352Z,0.80
2023-03-31T08:44:36.399Z,0.70
2023-03-31T08:45:31.524Z,0.50
2023-03-31T08:46:26.499Z,1.10
2023-03-31T08:47:21.538Z,1.40
2023-03-31T08:48:16.643Z,2.20
2023-03-31T08:49:11.641Z,1.50
2023-03-31T08:50:07.942Z,0.70
2023-03-31T08:51:03.020Z,0.80
2023-03-31T08:51:58.082Z,2.00
2023-03-31T08:52:53.162Z,0.90
2023-03-31T08:53:49.307Z,1.30
2023-03-31T08:54:44.905Z,0.50
2023-03-31T08:55:40.357Z,0.70
2023-03-31T08:56:35.589Z,0.80
2023-03-31T08:57:30.932Z,0.60
2023-03-31T08:58:26.409Z,2.50
2023-03-31T08:59:21.762Z,1.50
2023-03-31T09:00:17.530Z,1.00
2023-03-31T09:01:12.863Z,1.30
2023-03-31T09:02:08.310Z,0.80
2023-03-31T09:03:06.636Z,1.10
2023-03-31T09:03:59.174Z,0.60
2023-03-31T09:04:54.770Z,1.10
2023-03-31T09:05:59.683Z,1.00
2023-03-31T09:06:46.040Z,0.30
2023-03-31T09:07:40.117Z,0.50
2023-03-31T09:08:35.116Z,1.30
2023-03-31T09:09:30.187Z,1.00
2023-03-31T09:10:25.369Z,0.80
2023-03-31T09:11:20.283Z,1.00
2023-03-31T09:12:15.267Z,1.40
2023-03-31T09:13:12.858Z,1.30
2023-03-31T09:14:08.008Z,1.30
2023-03-31T09:15:03.211Z,0.20
2023-03-31T09:15:58.063Z,0.90
2023-03-31T09:16:53.149Z,0.70
2023-03-31T09:17:48.213Z,1.30
2023-03-31T09:18:43.232Z,0.90
2023-03-31T09:19:38.481Z,0.60
2023-03-31T09:20:34.265Z,0.70
2023-03-31T09:21:29.732Z,1.40
2023-03-31T09:22:25.323Z,1.10
2023-03-31T09:23:20.542Z,1.60
2023-03-31T09:24:15.945Z,0.50
2023-03-31T09:25:11.549Z,1.90
2023-03-31T09:26:07.120Z,2.30
2023-03-31T09:27:02.318Z,3.30
2023-03-31T09:27:57.744Z,0.80
2023-03-31T09:28:53.256Z,3.40
2023-03-31T09:29:48.619Z,3.40
2023-03-31T09:30:44.048Z,1.10
2023-03-31T09:31:39.469Z,2.10
2023-03-31T09:32:34.794Z,1.40
2023-03-31T09:33:30.318Z,1.00
2023-03-31T09:34:25.884Z,2.90
2023-03-31T09:35:21.286Z,4.40
2023-03-31T09:36:20.854Z,4.60
2023-03-31T09:37:16.031Z,4.30
2023-03-31T09:38:11.389Z,4.20
2023-03-31T09:39:06.839Z,1.60
2023-03-31T09:40:02.399Z,0.80
2023-03-31T09:40:57.686Z,1.80
2023-03-31T09:41:53.091Z,1.00
2023-03-31T09:42:48.617Z,1.20
2023-03-31T09:43:43.855Z,1.60
2023-03-31T09:44:39.301Z,1.10
2023-03-31T09:45:34.650Z,3.30
2023-03-31T09:46:30.393Z,1.90
2023-03-31T09:47:25.710Z,2.50
2023-03-31T09:48:21.025Z,1.30
2023-03-31T09:49:16.254Z,1.60
2023-03-31T09:50:11.784Z,1.70
2023-03-31T09:51:07.243Z,4.00
2023-03-31T09:52:02.694Z,2.30
2023-03-31T09:52:57.677Z,1.80
2023-03-31T09:53:52.707Z,1.90
2023-03-31T09:54:47.701Z,1.80
2023-03-31T09:55:42.801Z,3.00
2023-03-31T09:56:37.886Z,2.20
2023-03-31T09:57:34.132Z,2.80
2023-03-31T09:58:27.975Z,2.80
2023-03-31T09:59:24.014Z,5.10
2023-03-31T10:00:19.447Z,3.10
2023-03-31T10:01:14.729Z,1.10
2023-03-31T10:02:10.143Z,2.90
2023-03-31T10:03:05.646Z,1.90
2023-03-31T10:04:01.221Z,1.60
2023-03-31T10:04:56.390Z,2.00
2023-03-31T10:05:51.985Z,3.70
2023-03-31T10:06:47.455Z,2.20
2023-03-31T10:07:42.658Z,1.80
2023-03-31T10:08:38.153Z,1.10
2023-03-31T10:09:33.625Z,4.00
2023-03-31T10:10:29.486Z,1.40
2023-03-31T10:11:24.737Z,1.60
2023-03-31T10:12:20.151Z,1.30
2023-03-31T10:13:15.127Z,3.10
2023-03-31T10:14:10.220Z,2.60
2023-03-31T10:15:05.270Z,1.70
2023-03-31T10:16:00.605Z,1.50
2023-03-31T10:16:55.469Z,1.10
2023-03-31T10:20:11.323Z,1.40
2023-03-31T10:21:08.672Z,2.10
2023-03-31T10:22:02.042Z,1.80
2023-03-31T10:22:57.487Z,2.90
2023-03-31T10:23:52.886Z,2.20
2023-03-31T10:24:48.425Z,3.60
2023-03-31T10:25:43.806Z,2.60
2023-03-31T10:26:39.377Z,2.20
2023-03-31T10:27:34.722Z,2.30
2023-03-31T10:28:30.381Z,1.30
2023-03-31T10:29:25.844Z,2.40
2023-03-31T10:30:21.210Z,2.90
2023-03-31T10:31:16.794Z,1.80
2023-03-31T10:32:12.035Z,0.90
2023-03-31T10:33:19.228Z,2.70
2023-03-31T10:34:03.901Z,3.10
2023-03-31T10:34:58.310Z,3.10
2023-03-31T10:35:53.824Z,3.50
2023-03-31T10:36:49.189Z,5.10
2023-03-31T10:37:44.410Z,2.30
2023-03-31T10:38:39.899Z,4.10
2023-03-31T10:39:35.156Z,2.00
2023-03-31T10:40:30.556Z,0.80
2023-03-31T10:41:26.280Z,2.10
2023-03-31T10:42:21.551Z,1.80
2023-03-31T10:43:17.297Z,4.80
2023-03-31T10:44:12.778Z,2.70
2023-03-31T10:45:08.145Z,2.20
2023-03-31T10:46:03.724Z,2.90
2023-03-31T10:46:59.388Z,3.90
2023-03-31T10:47:54.615Z,2.20
2023-03-31T10:48:49.868Z,3.60
2023-03-31T10:49:45.477Z,2.20
2023-03-31T10:50:40.841Z,2.80
2023-03-31T10:51:36.380Z,1.70
2023-03-31T10:52:31.627Z,1.20
2023-03-31T10:53:26.998Z,2.00
2023-03-31T10:54:22.632Z,3.40
2023-03-31T10:55:17.938Z,2.10
2023-03-31T10:56:13.740Z,2.10
2023-03-31T10:57:08.971Z,3.60
2023-03-31T10:58:04.329Z,2.50
2023-03-31T10:59:05.963Z,4.40
2023-03-31T10:59:56.285Z,3.60
2023-03-31T11:00:50.584Z,2.10
2023-03-31T11:01:45.971Z,1.20
2023-03-31T11:02:41.553Z,1.10
2023-03-31T11:03:37.024Z,2.00
2023-03-31T11:04:32.519Z,0.70
2023-03-31T11:05:28.156Z,3.00
2023-03-31T11:06:23.645Z,1.60
2023-03-31T11:07:19.292Z,2.70
2023-03-31T11:08:14.629Z,2.90
2023-03-31T11:09:10.069Z,2.20
2023-03-31T11:10:05.533Z,4.30
2023-03-31T11:11:01.025Z,1.80
2023-03-31T11:11:56.414Z,1.40
2023-03-31T11:12:51.632Z,2.50
2023-03-31T11:13:47.260Z,1.10
2023-03-31T11:14:42.686Z,0.90
2023-03-31T11:15:38.154Z,1.70
2023-03-31T11:16:33.524Z,3.30
2023-03-31T11:17:29.076Z,0.80
2023-03-31T11:18:24.693Z,1.40
2023-03-31T11:19:20.068Z,2.10
2023-03-31T11:20:15.297Z,1.80
2023-03-31T11:21:10.701Z,1.80
2023-03-31T11:22:06.118Z,1.00
2023-03-31T11:23:01.647Z,1.10
2023-03-31T11:23:57.076Z,0.80
2023-03-31T11:24:52.521Z,2.10
2023-03-31T11:25:48.159Z,1.30
2023-03-31T11:26:43.529Z,3.30
2023-03-31T11:27:39.062Z,1.30
2023-03-31T11:28:34.301Z,1.50
2023-03-31T11:29:29.842Z,1.60
2023-03-31T11:30:25.323Z,1.70
2023-03-31T11:31:21.005Z,2.80
2023-03-31T11:32:16.405Z,4.60
2023-03-31T11:33:11.929Z,1.80
2023-03-31T11:34:07.168Z,2.00
2023-03-31T11:35:02.857Z,1.50
2023-03-31T11:35:58.195Z,1.70
2023-03-31T11:36:53.982Z,1.40
2023-03-31T11:37:49.428Z,2.50
2023-03-31T11:38:44.828Z,3.50
2023-03-31T11:39:40.422Z,2.30
2023-03-31T11:40:35.679Z,2.00
2023-03-31T11:41:31.263Z,4.50
2023-03-31T11:42:26.713Z,0.70
2023-03-31T11:43:21.986Z,1.60
2023-03-31T11:44:17.735Z,1.20
2023-03-31T11:45:12.972Z,0.40
2023-03-31T11:46:08.567Z,2.30
2023-03-31T11:47:03.794Z,1.80
2023-03-31T11:47:59.242Z,2.40
2023-03-31T11:48:54.432Z,1.30
2023-03-31T11:49:49.855Z,3.60
2023-03-31T11:50:45.436Z,2.10
2023-03-31T11:51:41.032Z,1.30
2023-03-31T11:52:36.543Z,1.70
2023-03-31T11:53:31.822Z,1.90
2023-03-31T11:54:27.287Z,2.30
2023-03-31T11:55:22.570Z,0.30
2023-03-31T11:56:18.178Z,1.30
2023-03-31T11:57:13.910Z,2.60
2023-03-31T11:58:09.272Z,1.90
2023-03-31T11:59:04.612Z,1.80
2023-03-31T11:59:59.969Z,2.60
2023-03-31T12:00:55.585Z,2.10
2023-03-31T12:01:51.071Z,0.50
2023-03-31T12:02:46.589Z,1.80
2023-03-31T12:03:41.904Z,2.30
2023-03-31T12:04:37.498Z,2.40
2023-03-31T12:05:32.721Z,2.30
2023-03-31T12:06:28.214Z,2.50
2023-03-31T12:07:23.735Z,1.50
2023-03-31T12:08:19.166Z,4.10
2023-03-31T12:09:14.570Z,2.20
2023-03-31T12:10:10.059Z,1.50
2023-03-31T12:11:05.287Z,0.60
2023-03-31T12:12:00.820Z,1.60
2023-03-31T12:12:56.370Z,1.20
2023-03-31T12:13:51.673Z,1.00
2023-03-31T12:14:47.161Z,2.60